createdAt,value
2023-01-13T00:13:57.185Z,93973.69
2023-01-13T00:28:59.127Z,93965.66
2023-01-13T00:44:04.262Z,93961.47
2023-01-13T00:59:05.923Z,93948.88
2023-01-13T01:14:08.188Z,93943.53
2023-01-13T01:29:12.041Z,93935.13
2023-01-13T01:44:32.276Z,93928.63
2023-01-13T01:59:35.168Z,93920.59
2023-01-13T02:14:37.572Z,93924.44
2023-01-13T02:30:13.099Z,93909.53
2023-01-13T02:45:23.479Z,93920.22
2023-01-13T03:00:26.639Z,93916.03
2023-01-13T03:15:46.420Z,93907.63
2023-01-13T03:30:51.900Z,93920.63
2023-01-13T03:45:55.934Z,93924.44
2023-01-13T04:01:00.439Z,93922.91
2023-01-13T04:16:02.515Z,93929.78
2023-01-13T04:31:04.172Z,93940.84
2023-01-13T04:46:05.820Z,93955.00
2023-01-13T05:01:07.483Z,93949.66
2023-01-13T05:16:28.892Z,93953.47
2023-01-13T05:31:30.635Z,93969.88
2023-01-13T05:46:32.288Z,93958.81
2023-01-13T06:01:34.359Z,93972.19
2023-01-13T06:16:36.059Z,93982.50
2023-01-13T06:31:39.219Z,93989.75
2023-01-13T06:46:40.862Z,93997.75
2023-01-13T07:01:42.597Z,93997.00
2023-01-13T07:16:44.659Z,93993.94
2023-01-13T07:31:49.781Z,93986.69
2023-01-13T07:46:51.524Z,93982.47
2023-01-13T08:01:53.423Z,94000.81
2023-01-13T08:16:55.137Z,94002.72
2023-01-13T08:31:56.715Z,94000.81
2023-01-13T08:46:58.826Z,93997.00
2023-01-13T09:02:00.922Z,93996.22
2023-01-13T09:17:02.847Z,93988.19
2023-01-13T09:32:04.836Z,93994.66
2023-01-13T09:47:14.029Z,93989.69
2023-01-13T10:02:18.861Z,93967.16
2023-01-13T10:17:32.262Z,93964.84
2023-01-13T10:32:33.836Z,93951.09
2023-01-13T10:47:36.909Z,93943.06
2023-01-13T11:02:38.856Z,93939.63
2023-01-13T11:17:40.721Z,93924.34
2023-01-13T11:33:04.749Z,93922.81
2023-01-13T11:48:09.609Z,93905.59
2023-01-13T12:03:17.522Z,93897.22
2023-01-13T12:18:19.099Z,93894.91
2023-01-13T12:33:39.614Z,93889.94
2023-01-13T12:49:04.999Z,93900.63
2023-01-13T13:04:14.386Z,93905.22
2023-01-13T13:19:19.140Z,93909.81
2023-01-13T13:34:24.611Z,93905.97
2023-01-13T13:49:46.980Z,93922.06
2023-01-13T14:04:48.634Z,93920.19
2023-01-13T14:20:13.146Z,93927.44
2023-01-13T14:35:16.026Z,93932.03
2023-01-13T14:50:25.153Z,93938.91
2023-01-13T15:05:27.840Z,93947.31
2023-01-13T15:20:29.520Z,93950.34
2023-01-13T15:35:31.182Z,93960.28
2023-01-13T15:50:32.960Z,93966.78
2023-01-13T16:05:35.196Z,93964.50
2023-01-13T16:20:38.874Z,93966.41
2023-01-13T16:35:44.008Z,93967.94
2023-01-13T16:51:02.351Z,93967.94
2023-01-13T17:06:04.222Z,93961.44
2023-01-13T17:21:07.138Z,93951.91
2023-01-13T17:36:09.416Z,93961.06
2023-01-13T17:51:15.848Z,93968.72
2023-01-13T18:06:18.757Z,93960.69
2023-01-13T18:21:43.068Z,93968.31
2023-01-13T18:36:44.799Z,93973.31
2023-01-13T18:51:46.356Z,93971.78
2023-01-13T19:06:51.092Z,93968.72
2023-01-13T19:21:52.717Z,93956.88
2023-01-13T19:36:54.464Z,93957.63
2023-01-13T19:51:56.033Z,93948.84
2023-01-13T20:06:57.679Z,93951.88
2023-01-13T20:21:59.569Z,93958.78
2023-01-13T20:37:01.067Z,93942.72
2023-01-13T20:52:05.323Z,93929.75
2023-01-13T21:07:07.077Z,93941.59
2023-01-13T21:22:08.643Z,93936.63
2023-01-13T21:37:10.214Z,93942.34
2023-01-13T21:52:12.451Z,93948.84
2023-01-13T22:07:14.060Z,93939.31
2023-01-13T22:22:18.838Z,93939.31
2023-01-13T22:37:20.457Z,93914.88
2023-01-13T22:52:22.648Z,93934.72
2023-01-13T23:07:24.274Z,93919.06
2023-01-13T23:22:25.900Z,93917.53
2023-01-13T23:37:27.620Z,93908.00
2023-01-13T23:52:29.277Z,93904.94
